Terminal Aerodrome Forecast
Issued by NWS

Home | Current Version | Previous Version | Text Only | Print | Product List | Glossary On
Versions: 1 2 3 4 5 6 7 8 9 10 11 12
643
FTUS42 TJSJ 041733
TAFKPK
TAF
TKPK 041733Z 0418/0518 08010KT P6SM VCSH SCT020
     FM042300 06005KT P6SM FEW022
     FM051300 05010KT P6SM FEW025
      AMD NOT SKED 0502/0511=

USA.gov is the U.S. government's official web portal to all federal, state and local government web resources and services.